Time;durP1;ratioP1;P1;durP2;ratioP2;P2;SDS_P1;SDS_P2;PMS_P1;PMS_P2;Temp;Humidity;BMP_temperature;BMP_pressure;BME280_temperature;BME280_humidity;BME280_pressure;Samples;Min_cycle;Max_cycle;Signal;HPM_P1;HPM_P2
2022/02/28 00:02:01;;;;;;;121.70;53.15;;;;;;;;;;6346490;22;20199;-90
2022/02/28 00:04:28;;;;;;;119.88;51.50;;;;;;;;;;6346982;22;20170;-92
2022/02/28 00:06:55;;;;;;;118.97;51.17;;;;;;;;;;6350346;22;20181;-93
2022/02/28 00:09:21;;;;;;;122.50;52.60;;;;;;;;;;6350001;22;20203;-90
2022/02/28 00:11:49;;;;;;;120.68;51.72;;;;;;;;;;6350167;22;20208;-92
2022/02/28 00:14:16;;;;;;;129.38;52.72;;;;;;;;;;6349783;22;20176;-91
2022/02/28 00:16:42;;;;;;;120.43;52.15;;;;;;;;;;6348333;22;20177;-91
2022/02/28 00:19:09;;;;;;;118.70;51.28;;;;;;;;;;6347659;22;20199;-91
2022/02/28 00:21:35;;;;;;;120.18;51.25;;;;;;;;;;6348583;22;20177;-90
2022/02/28 00:24:02;;;;;;;117.68;50.40;;;;;;;;;;6350513;22;20173;-93
2022/02/28 00:26:32;;;;;;;117.70;50.38;;;;;;;;;;6350981;22;20239;-96
2022/02/28 00:29:00;;;;;;;118.47;51.05;;;;;;;;;;6351394;22;20173;-92
2022/02/28 00:31:26;;;;;;;119.45;51.35;;;;;;;;;;6347564;22;20197;-91
2022/02/28 00:33:53;;;;;;;119.63;51.72;;;;;;;;;;6347751;22;20195;-91
2022/02/28 00:36:19;;;;;;;119.90;52.35;;;;;;;;;;6349774;22;20692;-91
2022/02/28 00:38:46;;;;;;;119.30;49.80;;;;;;;;;;6351648;22;20223;-92
2022/02/28 00:41:14;;;;;;;120.60;51.97;;;;;;;;;;6347293;22;20178;-91
2022/02/28 00:43:40;;;;;;;119.13;50.80;;;;;;;;;;6346616;22;20173;-92
2022/02/28 00:46:08;;;;;;;118.20;50.95;;;;;;;;;;6347866;22;20181;-93
2022/02/28 00:48:35;;;;;;;119.32;51.92;;;;;;;;;;6348836;22;20231;-92
2022/02/28 00:51:01;;;;;;;120.03;51.63;;;;;;;;;;6350200;22;20229;-92
2022/02/28 00:53:28;;;;;;;117.72;50.97;;;;;;;;;;6349598;22;20173;-91
2022/02/28 00:55:54;;;;;;;122.57;52.88;;;;;;;;;;6348931;22;20173;-91
2022/02/28 00:58:22;;;;;;;120.47;52.85;;;;;;;;;;6346805;22;20218;-91
2022/02/28 01:00:48;;;;;;;119.10;51.65;;;;;;;;;;6347670;22;20169;-92
2022/02/28 01:03:16;;;;;;;120.03;51.25;;;;;;;;;;6348133;22;20173;-90
2022/02/28 01:05:43;;;;;;;118.68;51.50;;;;;;;;;;6349081;22;20177;-90
2022/02/28 01:08:10;;;;;;;120.82;52.85;;;;;;;;;;6350024;22;20177;-90
2022/02/28 01:10:36;;;;;;;117.38;50.55;;;;;;;;;;6349821;22;20197;-92
2022/02/28 01:13:04;;;;;;;118.40;51.53;;;;;;;;;;6349095;22;20199;-92
2022/02/28 01:15:31;;;;;;;118.35;50.90;;;;;;;;;;6349012;22;20181;-91
2022/02/28 01:17:57;;;;;;;119.75;51.95;;;;;;;;;;6348373;22;20178;-91
2022/02/28 01:20:25;;;;;;;121.13;53.28;;;;;;;;;;6347544;22;20177;-90
2022/02/28 01:22:51;;;;;;;118.50;51.90;;;;;;;;;;6347019;22;20173;-90
2022/02/28 01:25:18;;;;;;;118.78;51.83;;;;;;;;;;6347179;22;20208;-91
2022/02/28 01:27:45;;;;;;;119.82;52.40;;;;;;;;;;6347496;22;20178;-91
2022/02/28 01:30:12;;;;;;;122.45;54.25;;;;;;;;;;6346466;22;20179;-90
2022/02/28 01:32:39;;;;;;;118.78;52.35;;;;;;;;;;6344876;22;20173;-91
2022/02/28 01:35:06;;;;;;;119.60;52.55;;;;;;;;;;6347262;22;20482;-91
2022/02/28 01:37:34;;;;;;;119.60;51.20;;;;;;;;;;6348887;22;20678;-91
2022/02/28 01:40:00;;;;;;;120.95;52.85;;;;;;;;;;6348787;22;20542;-92
2022/02/28 01:42:27;;;;;;;117.65;50.88;;;;;;;;;;6348825;22;20204;-92
2022/02/28 01:44:53;;;;;;;120.03;52.22;;;;;;;;;;6348831;22;20178;-91
2022/02/28 01:47:20;;;;;;;116.13;50.25;;;;;;;;;;6347425;22;20178;-92
2022/02/28 01:49:46;;;;;;;119.55;52.30;;;;;;;;;;6346902;22;20227;-91
2022/02/28 01:52:14;;;;;;;115.80;51.45;;;;;;;;;;6346020;22;20201;-93
2022/02/28 01:54:42;;;;;;;117.38;51.10;;;;;;;;;;6346816;22;20177;-93
2022/02/28 01:57:08;;;;;;;115.97;50.80;;;;;;;;;;6350102;22;20174;-91
2022/02/28 01:59:35;;;;;;;118.70;52.65;;;;;;;;;;6349337;22;20173;-91
2022/02/28 02:02:01;;;;;;;120.00;53.08;;;;;;;;;;6346358;22;20238;-91
2022/02/28 02:04:28;;;;;;;117.03;51.22;;;;;;;;;;6345959;22;20203;-91
2022/02/28 02:06:54;;;;;;;117.18;52.47;;;;;;;;;;6347513;22;20174;-91
2022/02/28 02:09:21;;;;;;;121.25;52.60;;;;;;;;;;6347412;22;20174;-93
2022/02/28 02:11:49;;;;;;;116.38;51.95;;;;;;;;;;6346146;22;20201;-91
2022/02/28 02:14:15;;;;;;;118.72;52.08;;;;;;;;;;6347853;22;20239;-91
2022/02/28 02:16:42;;;;;;;117.63;51.15;;;;;;;;;;6350177;22;20190;-91
2022/02/28 02:19:09;;;;;;;119.72;52.10;;;;;;;;;;6350131;22;20169;-91
2022/02/28 02:21:37;;;;;;;123.50;52.33;;;;;;;;;;6348735;22;20173;-91
2022/02/28 02:24:06;;;;;;;115.28;50.55;;;;;;;;;;6348999;22;20177;-94
2022/02/28 02:26:33;;;;;;;114.10;49.80;;;;;;;;;;6353444;22;20183;-94
2022/02/28 02:28:59;;;;;;;119.43;51.13;;;;;;;;;;6354223;22;20204;-92
2022/02/28 02:31:26;;;;;;;121.00;53.00;;;;;;;;;;6349031;22;20208;-92
2022/02/28 02:33:52;;;;;;;119.35;52.75;;;;;;;;;;6347940;22;20174;-93
2022/02/28 02:36:19;;;;;;;117.82;51.47;;;;;;;;;;6350506;22;20210;-92
2022/02/28 02:38:47;;;;;;;116.70;51.55;;;;;;;;;;6350287;22;20173;-92
2022/02/28 02:41:13;;;;;;;119.40;52.40;;;;;;;;;;6350481;22;20178;-92
2022/02/28 02:43:40;;;;;;;119.22;51.20;;;;;;;;;;6351278;22;20199;-93
2022/02/28 02:46:06;;;;;;;122.88;52.28;;;;;;;;;;6350312;22;20178;-93
2022/02/28 02:48:33;;;;;;;117.05;51.65;;;;;;;;;;6349472;22;20198;-91
2022/02/28 02:51:00;;;;;;;120.47;52.38;;;;;;;;;;6349636;22;20197;-92
2022/02/28 02:53:26;;;;;;;123.80;53.85;;;;;;;;;;6350050;22;20952;-91
2022/02/28 02:55:54;;;;;;;121.57;53.38;;;;;;;;;;6348986;22;20174;-91
2022/02/28 02:58:21;;;;;;;121.68;53.50;;;;;;;;;;6349100;22;20177;-91
2022/02/28 03:00:49;;;;;;;117.75;52.45;;;;;;;;;;6348247;22;20839;-91
2022/02/28 03:03:16;;;;;;;120.95;52.53;;;;;;;;;;6349530;22;20177;-92
2022/02/28 03:05:43;;;;;;;131.88;53.28;;;;;;;;;;6350014;22;20173;-91
2022/02/28 03:08:09;;;;;;;119.10;51.70;;;;;;;;;;6350239;22;20493;-92
2022/02/28 03:10:36;;;;;;;117.05;51.50;;;;;;;;;;6349443;22;20484;-93
2022/02/28 03:13:04;;;;;;;122.18;54.15;;;;;;;;;;6348680;22;20178;-91
2022/02/28 03:15:30;;;;;;;119.82;52.15;;;;;;;;;;6348472;22;20173;-90
2022/02/28 03:17:57;;;;;;;125.18;55.45;;;;;;;;;;6347571;22;20219;-91
2022/02/28 03:20:23;;;;;;;122.78;52.60;;;;;;;;;;6348836;22;20170;-92
2022/02/28 03:22:50;;;;;;;119.63;53.10;;;;;;;;;;6349735;22;20204;-93
2022/02/28 03:25:17;;;;;;;117.68;51.00;;;;;;;;;;6350186;22;20242;-91
2022/02/28 03:27:43;;;;;;;120.50;52.97;;;;;;;;;;6348703;22;20199;-93
2022/02/28 03:30:14;;;;;;;118.65;52.05;;;;;;;;;;6351681;22;20177;-96
2022/02/28 03:32:41;;;;;;;114.82;49.97;;;;;;;;;;6351469;22;20850;-94
2022/02/28 03:35:09;;;;;;;114.18;49.83;;;;;;;;;;6350832;22;20189;-95
2022/02/28 03:37:36;;;;;;;118.57;51.67;;;;;;;;;;6351799;22;20173;-91
2022/02/28 03:40:03;;;;;;;118.75;51.08;;;;;;;;;;6349686;22;20174;-93
2022/02/28 03:42:30;;;;;;;119.75;51.80;;;;;;;;;;6350112;22;20177;-92
2022/02/28 03:44:56;;;;;;;117.10;51.00;;;;;;;;;;6350130;22;20173;-92
2022/02/28 03:47:24;;;;;;;116.57;50.55;;;;;;;;;;6349744;22;20199;-91
2022/02/28 03:49:50;;;;;;;116.57;50.25;;;;;;;;;;6349870;22;20228;-92
2022/02/28 03:52:17;;;;;;;124.40;52.92;;;;;;;;;;6349114;22;20205;-91
2022/02/28 03:54:43;;;;;;;120.15;52.40;;;;;;;;;;6349131;22;20196;-92
2022/02/28 03:57:10;;;;;;;119.65;51.53;;;;;;;;;;6350268;22;20531;-93
2022/02/28 03:59:36;;;;;;;119.47;52.33;;;;;;;;;;6349410;22;20273;-93
2022/02/28 04:02:03;;;;;;;121.90;53.53;;;;;;;;;;6347522;22;20173;-91
2022/02/28 04:04:31;;;;;;;120.63;51.70;;;;;;;;;;6348503;22;20177;-94
2022/02/28 04:06:57;;;;;;;123.20;51.75;;;;;;;;;;6350877;22;20192;-92
2022/02/28 04:09:24;;;;;;;125.90;51.90;;;;;;;;;;6349032;22;20230;-92
2022/02/28 04:11:50;;;;;;;120.82;52.28;;;;;;;;;;6349194;22;20227;-91
2022/02/28 04:14:17;;;;;;;124.35;54.42;;;;;;;;;;6349273;22;20195;-91
2022/02/28 04:16:43;;;;;;;127.50;54.35;;;;;;;;;;6347657;22;20169;-91
2022/02/28 04:19:10;;;;;;;121.18;53.65;;;;;;;;;;6347841;22;20234;-91
2022/02/28 04:21:38;;;;;;;123.43;52.78;;;;;;;;;;6350935;22;20177;-93
2022/02/28 04:24:04;;;;;;;120.80;52.13;;;;;;;;;;6350296;22;20203;-93
2022/02/28 04:26:31;;;;;;;121.10;52.90;;;;;;;;;;6347221;22;20237;-94
2022/02/28 04:28:57;;;;;;;124.63;53.33;;;;;;;;;;6347969;22;20187;-92
2022/02/28 04:31:24;;;;;;;119.47;52.30;;;;;;;;;;6347557;22;20197;-92
2022/02/28 04:33:50;;;;;;;119.72;52.25;;;;;;;;;;6347176;22;20174;-92
2022/02/28 04:36:17;;;;;;;117.68;51.22;;;;;;;;;;6348867;22;20199;-92
2022/02/28 04:38:45;;;;;;;121.13;52.17;;;;;;;;;;6348712;22;20195;-92
2022/02/28 04:41:11;;;;;;;121.00;51.58;;;;;;;;;;6348584;22;20199;-96
2022/02/28 04:43:37;;;;;;;123.75;53.42;;;;;;;;;;6347146;22;20470;-92
2022/02/28 04:46:04;;;;;;;118.70;51.92;;;;;;;;;;6349943;22;20173;-93
2022/02/28 04:48:30;;;;;;;121.53;53.13;;;;;;;;;;6349893;22;20197;-94
2022/02/28 04:50:57;;;;;;;121.78;53.10;;;;;;;;;;6349424;22;20173;-93
2022/02/28 04:53:24;;;;;;;122.40;52.40;;;;;;;;;;6348625;22;20174;-92
2022/02/28 04:55:52;;;;;;;124.95;54.13;;;;;;;;;;6348232;22;20604;-91
2022/02/28 04:58:19;;;;;;;122.45;53.65;;;;;;;;;;6346740;22;20202;-92
2022/02/28 05:00:46;;;;;;;119.80;52.83;;;;;;;;;;6347589;22;20173;-91
2022/02/28 05:03:12;;;;;;;121.82;53.10;;;;;;;;;;6348228;22;20235;-90
2022/02/28 05:05:39;;;;;;;123.82;53.35;;;;;;;;;;6348368;22;20173;-91
2022/02/28 05:08:05;;;;;;;120.18;53.22;;;;;;;;;;6348083;22;20173;-93
2022/02/28 05:10:32;;;;;;;126.70;56.42;;;;;;;;;;6346548;22;20173;-91
2022/02/28 05:12:59;;;;;;;121.45;53.30;;;;;;;;;;6344995;22;20231;-93
2022/02/28 05:15:26;;;;;;;125.35;54.30;;;;;;;;;;6346028;22;20173;-92
2022/02/28 05:17:52;;;;;;;121.13;52.05;;;;;;;;;;6347612;22;20174;-94
2022/02/28 05:20:19;;;;;;;126.05;53.47;;;;;;;;;;6347199;22;20195;-92
2022/02/28 05:22:45;;;;;;;121.30;52.58;;;;;;;;;;6348722;22;20670;-92
2022/02/28 05:25:13;;;;;;;121.63;53.67;;;;;;;;;;6348639;22;20224;-93
2022/02/28 05:27:40;;;;;;;121.90;54.17;;;;;;;;;;6348651;22;20177;-91
2022/02/28 05:30:09;;;;;;;120.60;52.67;;;;;;;;;;6349783;22;20189;-91
2022/02/28 05:32:37;;;;;;;121.68;52.80;;;;;;;;;;6347972;22;20197;-91
2022/02/28 05:35:03;;;;;;;120.60;51.88;;;;;;;;;;6347899;22;20224;-91
2022/02/28 05:37:30;;;;;;;125.30;52.95;;;;;;;;;;6345394;22;20173;-92
2022/02/28 05:39:58;;;;;;;122.70;53.33;;;;;;;;;;6345933;22;20200;-95
2022/02/28 05:42:24;;;;;;;122.18;53.17;;;;;;;;;;6345303;22;20211;-91
2022/02/28 05:44:51;;;;;;;121.53;53.30;;;;;;;;;;6345276;22;20200;-91
2022/02/28 05:47:18;;;;;;;118.10;50.30;;;;;;;;;;6350115;22;20174;-93
2022/02/28 05:49:45;;;;;;;121.45;52.80;;;;;;;;;;6350808;22;20223;-91
2022/02/28 05:52:11;;;;;;;127.38;53.47;;;;;;;;;;6349714;22;20720;-91
2022/02/28 05:54:39;;;;;;;122.32;50.60;;;;;;;;;;6350368;22;20173;-96
2022/02/28 05:57:05;;;;;;;123.03;51.17;;;;;;;;;;6351375;22;20193;-91
2022/02/28 05:59:32;;;;;;;121.47;51.83;;;;;;;;;;6349841;22;20230;-92
2022/02/28 06:01:58;;;;;;;117.80;50.85;;;;;;;;;;6349839;22;20173;-92
2022/02/28 06:04:26;;;;;;;124.90;54.30;;;;;;;;;;6349267;22;20173;-92
2022/02/28 06:06:52;;;;;;;129.95;54.50;;;;;;;;;;6349119;22;20170;-92
2022/02/28 06:09:19;;;;;;;123.28;54.15;;;;;;;;;;6352585;22;20231;-94
2022/02/28 06:11:45;;;;;;;149.80;52.70;;;;;;;;;;6349736;22;20227;-94
2022/02/28 06:14:12;;;;;;;122.80;52.28;;;;;;;;;;6351939;22;20173;-94
2022/02/28 06:16:39;;;;;;;117.85;50.55;;;;;;;;;;6354264;22;20169;-95
2022/02/28 06:19:05;;;;;;;119.15;52.58;;;;;;;;;;6352589;22;20181;-93
2022/02/28 06:21:33;;;;;;;120.03;52.60;;;;;;;;;;6350097;22;20173;-94
2022/02/28 06:24:00;;;;;;;121.60;52.30;;;;;;;;;;6350861;22;20199;-93
2022/02/28 06:26:26;;;;;;;123.70;54.42;;;;;;;;;;6350627;22;20201;-95
2022/02/28 06:28:53;;;;;;;119.43;51.65;;;;;;;;;;6347084;22;20196;-95
2022/02/28 06:31:20;;;;;;;124.13;53.50;;;;;;;;;;6349860;22;20174;-95
2022/02/28 06:33:47;;;;;;;119.38;51.85;;;;;;;;;;6349092;22;20677;-94
2022/02/28 06:36:13;;;;;;;115.47;50.58;;;;;;;;;;6350365;22;20182;-94
2022/02/28 06:38:41;;;;;;;118.93;52.30;;;;;;;;;;6350094;22;20208;-94
2022/02/28 06:41:09;;;;;;;121.63;53.35;;;;;;;;;;6347825;22;20173;-93
2022/02/28 06:43:35;;;;;;;120.78;53.53;;;;;;;;;;6345710;22;20255;-96
2022/02/28 06:46:02;;;;;;;127.43;55.75;;;;;;;;;;6347359;22;20170;-93
2022/02/28 06:48:28;;;;;;;129.88;54.75;;;;;;;;;;6348368;22;20197;-93
2022/02/28 06:50:55;;;;;;;126.60;56.17;;;;;;;;;;6347574;22;20555;-95
2022/02/28 06:53:23;;;;;;;132.02;55.15;;;;;;;;;;6345682;22;20274;-94
2022/02/28 06:55:52;;;;;;;121.82;52.90;;;;;;;;;;6348576;22;20173;-93
2022/02/28 06:58:21;;;;;;;126.25;53.97;;;;;;;;;;6347746;22;20173;-93
2022/02/28 07:00:48;;;;;;;132.57;57.92;;;;;;;;;;6343726;22;20260;-93
2022/02/28 07:03:14;;;;;;;131.13;56.78;;;;;;;;;;6340256;22;20174;-93
2022/02/28 07:05:41;;;;;;;129.65;56.83;;;;;;;;;;6342932;22;20173;-92
2022/02/28 07:08:08;;;;;;;125.85;54.00;;;;;;;;;;6348370;22;20200;-92
2022/02/28 07:10:34;;;;;;;128.65;55.35;;;;;;;;;;6348147;22;20174;-94
2022/02/28 07:13:02;;;;;;;123.82;53.67;;;;;;;;;;6349238;22;20698;-95
2022/02/28 07:15:29;;;;;;;123.80;53.22;;;;;;;;;;6349418;22;20177;-96
2022/02/28 07:17:55;;;;;;;124.78;53.95;;;;;;;;;;6348787;22;20173;-93
2022/02/28 07:20:22;;;;;;;127.10;54.90;;;;;;;;;;6348643;22;20173;-92
2022/02/28 07:22:49;;;;;;;132.75;55.55;;;;;;;;;;6349326;22;20178;-94
2022/02/28 07:25:15;;;;;;;128.45;54.70;;;;;;;;;;6349591;22;20199;-94
2022/02/28 07:27:42;;;;;;;131.40;55.15;;;;;;;;;;6347973;22;20649;-93
2022/02/28 07:30:10;;;;;;;127.68;56.28;;;;;;;;;;6348269;22;20174;-93
2022/02/28 07:32:37;;;;;;;126.95;54.80;;;;;;;;;;6349164;22;20836;-92
2022/02/28 07:35:04;;;;;;;129.80;55.30;;;;;;;;;;6348506;22;20650;-95
2022/02/28 07:37:31;;;;;;;127.10;55.00;;;;;;;;;;6348349;22;20181;-93
2022/02/28 07:39:57;;;;;;;128.85;53.40;;;;;;;;;;6347240;22;20187;-93
2022/02/28 07:42:24;;;;;;;124.78;53.80;;;;;;;;;;6348725;22;20204;-93
2022/02/28 07:44:50;;;;;;;128.38;55.97;;;;;;;;;;6349071;22;20173;-93
2022/02/28 07:47:18;;;;;;;129.23;53.83;;;;;;;;;;6347092;22;20177;-94
2022/02/28 07:49:44;;;;;;;126.80;54.40;;;;;;;;;;6349172;22;20198;-92
2022/02/28 07:52:11;;;;;;;129.20;55.30;;;;;;;;;;6348691;22;20173;-92
2022/02/28 07:54:37;;;;;;;131.80;56.95;;;;;;;;;;6349093;22;20180;-93
2022/02/28 07:57:04;;;;;;;127.80;53.88;;;;;;;;;;6350273;22;20868;-92
2022/02/28 07:59:31;;;;;;;129.43;54.95;;;;;;;;;;6348209;22;20178;-93
2022/02/28 08:01:57;;;;;;;132.10;57.38;;;;;;;;;;6345421;22;20199;-92
2022/02/28 08:04:25;;;;;;;130.70;53.97;;;;;;;;;;6348269;22;20173;-93
2022/02/28 08:06:52;;;;;;;133.52;56.03;;;;;;;;;;6348001;22;20174;-92
2022/02/28 08:09:19;;;;;;;127.72;54.20;;;;;;;;;;6347707;22;20184;-92
2022/02/28 08:11:45;;;;;;;134.93;57.13;;;;;;;;;;6345908;22;20169;-92
2022/02/28 08:14:12;;;;;;;132.10;56.47;;;;;;;;;;6343818;22;20204;-94
2022/02/28 08:16:38;;;;;;;133.63;56.78;;;;;;;;;;6342691;22;20173;-92
2022/02/28 08:19:05;;;;;;;138.82;58.28;;;;;;;;;;6341432;22;20173;-95
2022/02/28 08:21:33;;;;;;;129.75;55.13;;;;;;;;;;6348604;22;20173;-94
2022/02/28 08:23:59;;;;;;;131.77;57.03;;;;;;;;;;6348113;22;20204;-95
2022/02/28 08:26:26;;;;;;;132.18;57.05;;;;;;;;;;6346537;22;20173;-94
2022/02/28 08:28:52;;;;;;;133.43;56.25;;;;;;;;;;6346532;22;20547;-93
2022/02/28 08:31:19;;;;;;;129.13;54.95;;;;;;;;;;6349426;22;20170;-93
2022/02/28 08:33:45;;;;;;;131.73;55.10;;;;;;;;;;6347283;22;20201;-93
2022/02/28 08:36:12;;;;;;;128.35;54.42;;;;;;;;;;6349417;22;20177;-93
2022/02/28 08:38:40;;;;;;;132.18;54.95;;;;;;;;;;6350212;22;20199;-93
2022/02/28 08:41:06;;;;;;;129.10;55.07;;;;;;;;;;6348421;22;20204;-93
2022/02/28 08:43:32;;;;;;;133.25;57.03;;;;;;;;;;6347136;22;20449;-92
2022/02/28 08:46:00;;;;;;;129.77;54.78;;;;;;;;;;6348133;22;20197;-94
2022/02/28 08:48:26;;;;;;;132.60;56.08;;;;;;;;;;6348881;22;20236;-93
2022/02/28 08:50:52;;;;;;;133.48;56.85;;;;;;;;;;6349077;22;20638;-93
2022/02/28 08:53:20;;;;;;;128.95;55.10;;;;;;;;;;6348565;22;20201;-92
2022/02/28 08:55:48;;;;;;;134.95;56.00;;;;;;;;;;6348805;22;20180;-96
2022/02/28 08:58:15;;;;;;;134.85;56.03;;;;;;;;;;6351031;22;20173;-95
2022/02/28 09:00:41;;;;;;;131.02;55.75;;;;;;;;;;6349033;22;20173;-94
2022/02/28 09:03:08;;;;;;;132.97;57.07;;;;;;;;;;6347262;22;20196;-93
2022/02/28 09:05:34;;;;;;;134.82;55.65;;;;;;;;;;6347661;22;20403;-94
2022/02/28 09:08:01;;;;;;;131.57;55.45;;;;;;;;;;6349285;22;20538;-93
2022/02/28 09:10:27;;;;;;;132.48;56.78;;;;;;;;;;6350168;22;20177;-94
2022/02/28 09:12:55;;;;;;;130.15;54.70;;;;;;;;;;6350272;22;20242;-96
2022/02/28 09:15:22;;;;;;;132.82;56.40;;;;;;;;;;6349879;22;20173;-94
2022/02/28 09:17:48;;;;;;;131.63;56.17;;;;;;;;;;6349045;22;20200;-93
2022/02/28 09:20:14;;;;;;;129.80;55.40;;;;;;;;;;6347619;22;20173;-94
2022/02/28 09:22:41;;;;;;;131.23;55.00;;;;;;;;;;6349449;22;20181;-96
2022/02/28 09:25:08;;;;;;;134.15;56.70;;;;;;;;;;6349720;22;20199;-95
2022/02/28 09:27:35;;;;;;;135.97;57.80;;;;;;;;;;6348278;22;20274;-95
2022/02/28 09:30:16;;;;;;;129.20;54.00;;;;;;;;;;6350350;22;20498;-96
2022/02/28 09:32:44;;;;;;;131.90;55.38;;;;;;;;;;6349735;22;20681;-93
2022/02/28 09:35:11;;;;;;;132.27;54.97;;;;;;;;;;6349932;22;20178;-92
2022/02/28 09:37:37;;;;;;;134.95;56.42;;;;;;;;;;6350733;22;20173;-94
2022/02/28 09:40:04;;;;;;;133.85;56.22;;;;;;;;;;6349811;22;20169;-93
2022/02/28 09:42:31;;;;;;;136.00;57.70;;;;;;;;;;6349574;22;20177;-94
2022/02/28 09:44:58;;;;;;;132.95;55.70;;;;;;;;;;6351718;22;20412;-92
2022/02/28 09:47:26;;;;;;;140.07;58.70;;;;;;;;;;6349630;22;20169;-94
2022/02/28 09:49:54;;;;;;;131.23;55.78;;;;;;;;;;6350341;22;20463;-93
2022/02/28 09:52:21;;;;;;;128.68;54.50;;;;;;;;;;6355441;22;20173;-95
2022/02/28 09:54:49;;;;;;;129.50;54.30;;;;;;;;;;6355741;22;20256;-96
2022/02/28 09:57:18;;;;;;;127.25;53.30;;;;;;;;;;6361134;22;20379;-96
2022/02/28 09:59:45;;;;;;;128.82;54.33;;;;;;;;;;6352735;22;20228;-95
2022/02/28 10:02:19;;;;;;;124.90;51.75;;;;;;;;;;6354312;22;20158;-96
2022/02/28 10:04:45;;;;;;;126.50;53.58;;;;;;;;;;6348847;22;20176;-94
2022/02/28 10:07:21;;;;;;;129.90;53.45;;;;;;;;;;6351195;22;20203;-95
2022/02/28 10:09:48;;;;;;;129.90;54.88;;;;;;;;;;6351606;22;20253;-96
2022/02/28 10:12:14;;;;;;;127.60;53.38;;;;;;;;;;6352524;22;20178;-96
2022/02/28 10:14:44;;;;;;;129.90;53.58;;;;;;;;;;6352686;22;20178;-96
2022/02/28 10:17:15;;;;;;;125.95;52.63;;;;;;;;;;6341113;22;20294;-96
2022/02/28 10:19:41;;;;;;;124.68;52.55;;;;;;;;;;6329045;22;20200;-95
2022/02/28 10:22:09;;;;;;;136.38;54.92;;;;;;;;;;6335377;22;20181;-94
2022/02/28 10:24:38;;;;;;;133.52;56.70;;;;;;;;;;6352626;22;20173;-94
2022/02/28 10:27:06;;;;;;;128.27;54.22;;;;;;;;;;6352276;22;20173;-93
2022/02/28 10:29:34;;;;;;;128.48;53.33;;;;;;;;;;6353387;22;20180;-96
2022/02/28 10:32:02;;;;;;;130.07;55.55;;;;;;;;;;6349247;22;20173;-94
2022/02/28 10:34:30;;;;;;;133.05;56.13;;;;;;;;;;6347985;22;20646;-93
2022/02/28 10:37:03;;;;;;;130.77;55.20;;;;;;;;;;6350369;22;20181;-96
2022/02/28 10:39:33;;;;;;;144.27;56.60;;;;;;;;;;6350557;22;20239;-94
2022/02/28 10:42:05;;;;;;;127.72;54.47;;;;;;;;;;6351705;22;20408;-96
2022/02/28 10:44:33;;;;;;;125.78;53.30;;;;;;;;;;6353855;22;20222;-95
2022/02/28 10:47:03;;;;;;;137.77;57.77;;;;;;;;;;6352831;22;20174;-94
2022/02/28 10:49:30;;;;;;;141.45;54.92;;;;;;;;;;6358978;22;20434;-94
2022/02/28 10:51:58;;;;;;;138.38;54.15;;;;;;;;;;6356020;22;20179;-95
2022/02/28 10:54:31;;;;;;;139.27;54.83;;;;;;;;;;6356928;22;20189;-95
2022/02/28 10:56:59;;;;;;;142.45;56.20;;;;;;;;;;6356383;22;20173;-93
2022/02/28 10:59:46;;;;;;;135.70;53.60;;;;;;;;;;6354240;22;20158;-96
2022/02/28 11:02:23;;;;;;;141.75;55.97;;;;;;;;;;6353592;22;20173;-95
2022/02/28 11:05:02;;;;;;;141.77;55.45;;;;;;;;;;6320666;22;20170;-95
2022/02/28 11:07:29;;;;;;;139.60;55.15;;;;;;;;;;6329373;22;20566;-94
2022/02/28 11:09:58;;;;;;;139.18;54.08;;;;;;;;;;6351468;22;20219;-96
2022/02/28 11:12:28;;;;;;;150.30;56.95;;;;;;;;;;6350629;22;20212;-94
2022/02/28 11:14:57;;;;;;;152.75;56.22;;;;;;;;;;6358002;22;20213;-94
2022/02/28 11:17:27;;;;;;;160.32;58.38;;;;;;;;;;6348280;22;20169;-93
2022/02/28 11:19:54;;;;;;;155.82;57.92;;;;;;;;;;6346814;22;20203;-95
2022/02/28 11:22:24;;;;;;;156.25;56.90;;;;;;;;;;6356988;22;20183;-95
2022/02/28 11:24:59;;;;;;;160.13;57.30;;;;;;;;;;6362810;22;20185;-95
2022/02/28 11:27:32;;;;;;;156.48;57.15;;;;;;;;;;6355013;22;20181;-95
2022/02/28 11:29:59;;;;;;;156.98;57.20;;;;;;;;;;6353807;22;20169;-92
2022/02/28 11:32:27;;;;;;;166.67;60.43;;;;;;;;;;6353728;22;20173;-93
2022/02/28 11:34:55;;;;;;;144.57;56.40;;;;;;;;;;6352628;22;20482;-96
2022/02/28 11:37:23;;;;;;;146.33;56.93;;;;;;;;;;6355927;22;20391;-94
2022/02/28 11:40:25;;;;;;;142.50;55.67;;;;;;;;;;6357300;22;20407;-96
2022/02/28 11:43:10;;;;;;;151.27;57.13;;;;;;;;;;6357095;22;20501;-96
2022/02/28 11:45:37;;;;;;;155.30;58.53;;;;;;;;;;6351419;22;21315;-94
2022/02/28 11:48:21;;;;;;;161.97;59.07;;;;;;;;;;6357469;22;20403;-96
2022/02/28 11:50:51;;;;;;;159.77;58.73;;;;;;;;;;6329489;22;20452;-95
2022/02/28 11:53:38;;;;;;;158.87;58.10;;;;;;;;;;6325107;22;20411;-96
2022/02/28 11:56:20;;;;;;;157.23;57.20;;;;;;;;;;6321777;22;20409;-95
2022/02/28 11:58:48;;;;;;;163.60;58.67;;;;;;;;;;6359802;22;20400;-96
2022/02/28 12:01:24;;;;;;;160.93;58.55;;;;;;;;;;6332156;22;20206;-96
2022/02/28 12:04:10;;;;;;;162.48;59.05;;;;;;;;;;6352257;22;20184;-91
2022/02/28 12:09:45;;;;;;;160.05;57.47;;;;;;;;;;6343038;22;20229;-95
2022/02/28 12:12:32;;;;;;;156.13;56.38;;;;;;;;;;6334400;22;20191;-96
2022/02/28 12:15:09;;;;;;;164.30;58.75;;;;;;;;;;6351598;22;20753;-94
2022/02/28 12:20:38;;;;;;;132.07;55.38;;;;;;;;;;6334201;22;20459;-94
2022/02/28 12:23:16;;;;;;;130.85;55.20;;;;;;;;;;6326186;22;20196;-96
2022/02/28 12:25:44;;;;;;;127.77;53.50;;;;;;;;;;6326528;22;20205;-96
2022/02/28 12:28:15;;;;;;;129.47;54.07;;;;;;;;;;6321906;22;20470;-96
2022/02/28 12:30:48;;;;;;;152.20;55.83;;;;;;;;;;6326244;22;20404;-96
2022/02/28 12:33:19;;;;;;;156.70;57.70;;;;;;;;;;6326379;22;20174;-96
2022/02/28 12:36:06;;;;;;;163.48;57.45;;;;;;;;;;6329170;22;20420;-96
2022/02/28 12:38:44;;;;;;;160.67;57.70;;;;;;;;;;6352077;22;20173;-96
2022/02/28 12:41:12;;;;;;;146.47;57.80;;;;;;;;;;6352111;22;20407;-96
2022/02/28 12:43:39;;;;;;;154.97;59.70;;;;;;;;;;6355657;22;20729;-95
2022/02/28 12:46:07;;;;;;;151.50;58.15;;;;;;;;;;6358163;22;20419;-96
2022/02/28 12:48:33;;;;;;;152.15;57.47;;;;;;;;;;6337242;22;20185;-95
2022/02/28 12:51:08;;;;;;;150.02;55.25;;;;;;;;;;6353014;22;20207;-96
2022/02/28 12:53:38;;;;;;;151.35;56.55;;;;;;;;;;6355161;22;20173;-93
2022/02/28 12:56:06;;;;;;;152.38;58.00;;;;;;;;;;6355633;22;20164;-96
2022/02/28 13:01:25;;;;;;;155.98;56.33;;;;;;;;;;6359499;22;20411;-96
2022/02/28 13:03:52;;;;;;;156.80;56.60;;;;;;;;;;6357752;22;20205;-94
2022/02/28 13:06:21;;;;;;;158.48;56.60;;;;;;;;;;6352088;22;20508;-95
2022/02/28 13:08:59;;;;;;;161.38;58.25;;;;;;;;;;6354477;22;20173;-96
2022/02/28 13:11:26;;;;;;;162.68;58.30;;;;;;;;;;6356660;22;20173;-95
2022/02/28 13:13:56;;;;;;;157.10;57.03;;;;;;;;;;6355561;22;20284;-96
2022/02/28 13:16:23;;;;;;;166.52;58.28;;;;;;;;;;6354915;22;20181;-94
2022/02/28 13:18:58;;;;;;;159.05;57.83;;;;;;;;;;6353981;22;20226;-94
2022/02/28 13:21:29;;;;;;;165.48;57.92;;;;;;;;;;6356327;22;20222;-96
2022/02/28 13:24:00;;;;;;;166.20;57.15;;;;;;;;;;6355672;22;20177;-95
2022/02/28 13:26:26;;;;;;;164.80;57.20;;;;;;;;;;6353633;22;20174;-95
2022/02/28 13:28:53;;;;;;;176.77;59.25;;;;;;;;;;6353266;22;20178;-96
2022/02/28 13:31:20;;;;;;;175.02;58.72;;;;;;;;;;6349971;22;20177;-94
2022/02/28 13:33:52;;;;;;;175.18;58.50;;;;;;;;;;6348705;22;20185;-95
2022/02/28 13:36:19;;;;;;;183.52;61.63;;;;;;;;;;6350513;22;20183;-96
2022/02/28 13:38:47;;;;;;;184.50;60.53;;;;;;;;;;6346612;22;20177;-93
2022/02/28 13:41:13;;;;;;;179.50;58.30;;;;;;;;;;6343424;22;20169;-93
2022/02/28 13:43:42;;;;;;;181.40;59.40;;;;;;;;;;6350157;22;20203;-96
2022/02/28 13:46:16;;;;;;;181.82;60.75;;;;;;;;;;6346497;22;20180;-96
2022/02/28 13:51:48;;;;;;;181.93;58.63;;;;;;;;;;6335287;22;20250;-96
2022/02/28 13:54:17;;;;;;;184.68;59.30;;;;;;;;;;6357524;22;20251;-96
2022/02/28 13:56:52;;;;;;;180.15;58.35;;;;;;;;;;6392730;22;20205;-96
2022/02/28 14:02:04;;;;;;;187.35;59.53;;;;;;;;;;6387364;22;20173;-96
2022/02/28 14:04:34;;;;;;;192.40;58.30;;;;;;;;;;6393505;22;20156;-95
2022/02/28 14:07:01;;;;;;;203.88;62.35;;;;;;;;;;6384663;22;20169;-92
2022/02/28 14:09:29;;;;;;;203.55;61.70;;;;;;;;;;6381233;22;20202;-96
2022/02/28 14:11:57;;;;;;;186.43;57.78;;;;;;;;;;6392715;22;20173;-95
2022/02/28 14:14:24;;;;;;;210.18;60.03;;;;;;;;;;6393950;22;20211;-96
2022/02/28 14:16:58;;;;;;;219.40;60.10;;;;;;;;;;6362595;22;20173;-95
2022/02/28 14:19:36;;;;;;;233.50;62.45;;;;;;;;;;6389980;22;20169;-96
2022/02/28 14:22:04;;;;;;;239.63;61.95;;;;;;;;;;6384960;22;20184;-93
2022/02/28 14:27:44;;;;;;;326.83;68.78;;;;;;;;;;6379453;22;20263;-96